Lexa Maersk — OYYL2 — position and weather

sailwx.info

Track history (hours):
 
Tides and Currents Weather Stations Pressure Air Temp Water Temp Dewpoint Dewpoint Depression Visibility Wind Speed Wind Dir Waves Ship Positions

Lexa Maersk

Last reported at 2017-Apr-25 10:00 UTC. Time now 2017-Apr-27 18:48 UTC.
Position S 31°36' E 113°42'.

Length 265.8 m; beam 37.3 m; draft 14 m.

Type: Cargo ship. MMSI: 219979000.

Wind from 160 at 19 knots

Barometer 1027.4 mb
Air temperature 19.2 ° C
Visibility: greater than 10.8 NM
Dewpoint 16.2 ° C
Water temperature 20.9 ° C

Date/timePositionNaut miles runAvg speedWind from/ knotsBaromVisibWave heightAir tempDewpointWater temp
2017-Apr-25 10:00S 31°36' E 113°42'   160 / 191027.410.8 19.216.220.9
2017-Apr-20 17:42S 39°54' E 145°42'715.7
2017-Apr-20 17:13S 39°57' E 145°51'815.8
2017-Apr-20 16:45S 40°00' E 146°00'2215.9
2017-Apr-20 15:21S 40°08' E 146°27'616.0
2017-Apr-20 14:59S 40°10' E 146°34'1316.0
2017-Apr-20 14:10S 40°15' E 146°50'1416.1
2017-Apr-20 13:16S 40°21' E 147°08'816.0
2017-Apr-20 12:47S 40°24' E 147°17'2915.4
2017-Apr-20 10:53S 40°34' E 147°53'513.7
2017-Apr-20 10:30S 40°36' E 147°59'712.9
2017-Apr-20 09:55S 40°39' E 148°09'713.5
2017-Apr-20 09:22S 40°40' E 148°18'614.4
2017-Apr-20 08:58S 40°42' E 148°25'714.8
2017-Apr-20 08:30S 40°44' E 148°34'815.3
2017-Apr-20 07:59S 40°46' E 148°44'815.5
2017-Apr-20 07:27S 40°51' E 148°53'  
Track history (hours):
 
Tides and Currents Weather Stations Pressure Air Temp Water Temp Dewpoint Dewpoint Depression Visibility Wind Speed Wind Dir Waves Ship Positions

Lexa Maersk

Last reported at 2017-Apr-25 10:00 UTC. Time now 2017-Apr-27 18:48 UTC.
Position S 31°36' E 113°42'.

Length 265.8 m; beam 37.3 m; draft 14 m.

Type: Cargo ship. MMSI: 219979000.

Wind from 160 at 19 knots

Barometer 1027.4 mb
Air temperature 19.2 ° C
Visibility: greater than 10.8 NM
Dewpoint 16.2 ° C
Water temperature 20.9 ° C

Date/timePositionNaut miles runAvg speedWind from/ knotsBaromVisibWave heightAir tempDewpointWater temp
2017-Apr-25 10:00S 31°36' E 113°42'   160 / 191027.410.8 19.216.220.9
2017-Apr-20 17:42S 39°54' E 145°42'715.7
2017-Apr-20 17:13S 39°57' E 145°51'815.8
2017-Apr-20 16:45S 40°00' E 146°00'2215.9
2017-Apr-20 15:21S 40°08' E 146°27'616.0
2017-Apr-20 14:59S 40°10' E 146°34'1316.0
2017-Apr-20 14:10S 40°15' E 146°50'1416.1
2017-Apr-20 13:16S 40°21' E 147°08'816.0
2017-Apr-20 12:47S 40°24' E 147°17'2915.4
2017-Apr-20 10:53S 40°34' E 147°53'513.7
2017-Apr-20 10:30S 40°36' E 147°59'712.9
2017-Apr-20 09:55S 40°39' E 148°09'713.5
2017-Apr-20 09:22S 40°40' E 148°18'614.4
2017-Apr-20 08:58S 40°42' E 148°25'714.8
2017-Apr-20 08:30S 40°44' E 148°34'815.3
2017-Apr-20 07:59S 40°46' E 148°44'815.5
2017-Apr-20 07:27S 40°51' E 148°53'  

Dump ship's entire track history